createdAt,value
2019-05-12T00:01:28.646Z,15.25
2019-05-12T00:04:04.973Z,16.48
2019-05-12T00:06:40.926Z,17.85
2019-05-12T00:09:18.784Z,15.45
2019-05-12T00:11:54.572Z,18.20
2019-05-12T00:14:30.744Z,20.02
2019-05-12T00:17:08.221Z,22.05
2019-05-12T00:19:44.292Z,23.77
2019-05-12T00:22:21.887Z,24.75
2019-05-12T00:24:58.374Z,24.98
2019-05-12T00:27:35.849Z,23.55
2019-05-12T00:30:13.534Z,24.87
2019-05-12T00:43:15.995Z,26.25
2019-05-12T00:46:43.831Z,26.17
2019-05-12T00:53:09.111Z,26.93
2019-05-12T00:55:44.323Z,27.77
2019-05-12T00:58:20.292Z,30.05
2019-05-12T01:00:59.305Z,30.17
2019-05-12T01:03:33.817Z,29.18
2019-05-12T01:06:09.820Z,31.10
2019-05-12T01:08:45.750Z,28.85
2019-05-12T01:11:22.010Z,33.25
2019-05-12T01:13:58.363Z,34.23
2019-05-12T01:16:34.547Z,32.30
2019-05-12T01:19:10.503Z,31.77
2019-05-12T01:21:48.148Z,31.37
2019-05-12T01:24:24.658Z,32.33
2019-05-12T01:32:08.953Z,30.57
2019-05-12T01:34:44.901Z,32.65
2019-05-12T01:37:24.957Z,32.80
2019-05-12T01:40:00.908Z,33.73
2019-05-12T01:42:38.191Z,33.85
2019-05-12T01:45:14.789Z,34.85
2019-05-12T01:47:50.835Z,36.53
2019-05-12T01:50:28.258Z,34.83
2019-05-12T01:53:04.581Z,36.88
2019-05-12T01:55:40.525Z,36.23
2019-05-12T01:58:14.659Z,36.42
2019-05-12T02:00:50.614Z,37.15
2019-05-12T02:03:28.369Z,36.80
2019-05-12T02:06:04.771Z,36.03
2019-05-12T02:08:54.349Z,35.20
2019-05-12T02:11:33.378Z,35.85
2019-05-12T02:14:10.574Z,37.35
2019-05-12T02:16:47.750Z,35.38
2019-05-12T02:19:23.920Z,36.77
2019-05-12T02:21:59.876Z,36.93
2019-05-12T02:24:35.935Z,36.38
2019-05-12T02:27:12.505Z,37.45
2019-05-12T02:29:48.449Z,36.88
2019-05-12T02:32:35.605Z,39.20
2019-05-12T02:35:05.775Z,37.20
2019-05-12T02:37:41.043Z,39.38
2019-05-12T02:40:18.535Z,36.73
2019-05-12T02:42:55.024Z,37.48
2019-05-12T02:45:35.131Z,37.20
2019-05-12T02:48:09.783Z,37.70
2019-05-12T02:50:46.361Z,36.63
2019-05-12T02:53:24.796Z,36.60
2019-05-12T02:56:01.018Z,36.15
2019-05-12T02:58:39.333Z,36.77
2019-05-12T03:01:16.119Z,38.38
2019-05-12T03:03:55.067Z,37.83
2019-05-12T03:06:32.119Z,38.20
2019-05-12T03:09:09.711Z,39.55
2019-05-12T03:11:46.599Z,37.50
2019-05-12T03:14:25.271Z,39.42
2019-05-12T03:17:00.755Z,37.90
2019-05-12T03:19:36.708Z,39.10
2019-05-12T03:22:14.180Z,39.85
2019-05-12T03:25:06.531Z,38.30
2019-05-12T03:27:28.176Z,39.27
2019-05-12T03:33:19.722Z,39.65
2019-05-12T03:43:45.111Z,37.03
2019-05-12T03:46:45.366Z,36.65
2019-05-12T03:49:37.851Z,36.80
2019-05-12T03:52:34.711Z,36.40
2019-05-12T03:55:35.436Z,35.75
2019-05-12T03:58:04.773Z,37.88
2019-05-12T04:00:40.694Z,36.60
2019-05-12T04:03:16.699Z,35.43
2019-05-12T04:05:55.385Z,38.05
2019-05-12T04:08:34.480Z,38.48
2019-05-12T04:11:09.057Z,36.38
2019-05-12T04:13:45.425Z,35.83
2019-05-12T04:16:24.397Z,38.83
2019-05-12T04:19:00.481Z,37.40
2019-05-12T04:21:36.408Z,36.77
2019-05-12T04:24:14.244Z,36.75
2019-05-12T04:26:49.986Z,36.53
2019-05-12T04:29:25.865Z,37.20
2019-05-12T04:32:01.781Z,37.25
2019-05-12T04:34:37.737Z,36.48
2019-05-12T04:37:14.825Z,38.95
2019-05-12T04:39:50.918Z,38.73
2019-05-12T04:42:28.082Z,35.73
2019-05-12T04:45:06.901Z,36.88
2019-05-12T04:47:45.000Z,39.95
2019-05-12T04:50:20.694Z,41.75
2019-05-12T04:52:56.580Z,42.20
2019-05-12T04:55:35.420Z,62.62
2019-05-12T04:58:10.130Z,56.00
2019-05-12T05:00:46.087Z,72.65
2019-05-12T05:03:24.712Z,62.50
2019-05-12T05:06:04.259Z,50.40
2019-05-12T05:08:38.763Z,48.13
2019-05-12T05:11:15.020Z,58.38
2019-05-12T05:13:50.940Z,41.23
2019-05-12T05:16:26.861Z,42.27
2019-05-12T05:19:03.780Z,47.83
2019-05-12T05:21:39.811Z,39.88
2019-05-12T05:24:15.710Z,46.30
2019-05-12T05:26:53.757Z,55.08
2019-05-12T05:29:29.301Z,48.25
2019-05-12T05:32:05.182Z,42.17
2019-05-12T05:34:45.991Z,40.40
2019-05-12T05:37:18.734Z,40.98
2019-05-12T05:39:55.035Z,42.85
2019-05-12T05:42:33.422Z,44.88
2019-05-12T05:45:09.884Z,45.38
2019-05-12T05:47:49.066Z,44.03
2019-05-12T05:50:29.482Z,47.40
2019-05-12T05:53:03.769Z,43.02
2019-05-12T05:55:40.069Z,46.28
2019-05-12T05:58:15.953Z,44.13
2019-05-12T06:00:54.743Z,49.08
2019-05-12T06:03:33.682Z,45.05
2019-05-12T06:06:12.357Z,41.45
2019-05-12T06:09:03.718Z,35.90
2019-05-12T06:11:39.390Z,33.63
2019-05-12T06:14:16.264Z,35.92
2019-05-12T06:16:53.756Z,32.35
2019-05-12T06:19:29.874Z,36.95
2019-05-12T06:22:08.920Z,38.60
2019-05-12T06:24:44.216Z,29.27
2019-05-12T06:27:20.950Z,27.07
2019-05-12T06:30:00.883Z,27.58
2019-05-12T06:32:35.076Z,26.75
2019-05-12T06:35:11.237Z,25.17
2019-05-12T06:37:57.356Z,23.67
2019-05-12T06:40:24.894Z,20.43
2019-05-12T06:43:00.834Z,11.05
2019-05-12T06:45:42.116Z,8.13
2019-05-12T06:48:19.485Z,7.40
2019-05-12T06:50:53.488Z,7.20
2019-05-12T06:53:31.037Z,6.62
2019-05-12T06:56:09.420Z,7.53
2019-05-12T06:58:46.314Z,13.98
2019-05-12T07:01:24.224Z,6.05
2019-05-12T07:04:00.655Z,6.62
2019-05-12T07:06:37.557Z,5.90
2019-05-12T07:09:16.220Z,10.58
2019-05-12T07:12:01.539Z,3.72
2019-05-12T07:14:29.020Z,3.02
2019-05-12T07:17:09.572Z,3.83
2019-05-12T07:19:45.529Z,3.08
2019-05-12T07:22:23.375Z,3.45
2019-05-12T07:24:59.188Z,3.10
2019-05-12T07:27:39.319Z,4.75
2019-05-12T07:30:13.756Z,3.95
2019-05-12T07:32:51.198Z,4.00
2019-05-12T07:35:28.633Z,3.67
2019-05-12T07:38:05.173Z,5.12
2019-05-12T07:40:44.320Z,3.92
2019-05-12T07:43:24.122Z,14.58
2019-05-12T07:46:06.811Z,5.10
2019-05-12T07:48:40.391Z,6.25
2019-05-12T07:51:15.121Z,3.27
2019-05-12T07:53:55.338Z,3.02
2019-05-12T07:56:32.943Z,3.12
2019-05-12T07:59:06.373Z,5.28
2019-05-12T08:01:48.650Z,2.65
2019-05-12T08:04:20.033Z,3.50
2019-05-12T08:06:55.990Z,6.03
2019-05-12T08:09:33.003Z,4.42
2019-05-12T08:12:15.282Z,5.03
2019-05-12T08:14:47.338Z,2.45
2019-05-12T08:17:24.651Z,2.40
2019-05-12T08:20:00.788Z,3.10
2019-05-12T08:22:37.226Z,2.40
2019-05-12T08:25:13.616Z,2.72
2019-05-12T08:27:51.988Z,3.10
2019-05-12T08:30:40.234Z,3.90
2019-05-12T08:33:14.605Z,3.52
2019-05-12T08:35:50.349Z,4.58
2019-05-12T08:38:26.314Z,7.20
2019-05-12T08:41:04.297Z,3.27
2019-05-12T08:43:45.838Z,3.00
2019-05-12T08:46:18.173Z,7.80
2019-05-12T08:48:57.833Z,3.60
2019-05-12T08:51:33.914Z,3.67
2019-05-12T08:54:09.511Z,3.10
2019-05-12T08:56:45.467Z,3.58
2019-05-12T08:59:26.500Z,3.67
2019-05-12T09:02:00.560Z,3.72
2019-05-12T09:04:36.824Z,3.42
2019-05-12T09:07:13.926Z,3.77
2019-05-12T09:09:49.972Z,9.13
2019-05-12T09:12:26.131Z,6.95
2019-05-12T09:15:04.318Z,6.55
2019-05-12T09:17:49.258Z,6.12
2019-05-12T09:20:17.584Z,4.62
2019-05-12T09:23:00.540Z,4.85
2019-05-12T09:25:31.227Z,5.00
2019-05-12T09:28:08.319Z,5.60
2019-05-12T09:30:47.629Z,4.90
2019-05-12T09:33:29.621Z,5.62
2019-05-12T09:35:59.877Z,5.95
2019-05-12T09:38:35.833Z,7.33
2019-05-12T09:41:14.001Z,6.10
2019-05-12T09:43:50.540Z,6.60
2019-05-12T09:46:28.439Z,7.10
2019-05-12T09:49:04.370Z,6.03
2019-05-12T09:51:45.170Z,7.28
2019-05-12T09:54:18.124Z,6.15
2019-05-12T09:56:55.463Z,5.28
2019-05-12T09:59:33.513Z,5.87
2019-05-12T10:02:10.576Z,6.00
2019-05-12T10:04:50.279Z,6.00
2019-05-12T10:07:24.751Z,5.30
2019-05-12T10:10:00.828Z,6.08
2019-05-12T10:12:45.039Z,7.28
2019-05-12T10:15:18.863Z,6.03
2019-05-12T10:17:54.011Z,6.30
2019-05-12T10:20:35.417Z,5.70
2019-05-12T10:23:10.307Z,5.72
2019-05-12T10:25:45.367Z,5.33
2019-05-12T10:28:23.625Z,4.72
2019-05-12T10:30:59.209Z,4.53
2019-05-12T10:33:35.151Z,4.70
2019-05-12T10:36:11.028Z,4.75
2019-05-12T10:38:48.028Z,5.58
2019-05-12T10:41:23.898Z,3.92
2019-05-12T10:44:00.009Z,4.22
2019-05-12T10:46:35.934Z,4.50
2019-05-12T10:49:13.849Z,6.85
2019-05-12T10:51:49.456Z,5.75
2019-05-12T10:54:25.391Z,7.05
2019-05-12T10:57:01.324Z,8.40
2019-05-12T10:59:38.853Z,6.10
2019-05-12T11:02:14.919Z,6.58
2019-05-12T11:04:50.827Z,5.58
2019-05-12T11:07:28.201Z,5.12
2019-05-12T11:10:15.375Z,5.00
2019-05-12T11:12:44.391Z,5.62
2019-05-12T11:15:20.294Z,5.78
2019-05-12T11:17:57.772Z,7.70
2019-05-12T11:20:34.561Z,9.05
2019-05-12T11:23:10.530Z,5.72
2019-05-12T11:25:46.488Z,13.40
2019-05-12T11:28:24.497Z,5.53
2019-05-12T11:31:00.799Z,4.50
2019-05-12T11:33:37.093Z,5.50
2019-05-12T11:36:13.540Z,5.28
2019-05-12T11:38:49.561Z,5.00
2019-05-12T11:41:28.458Z,6.28
2019-05-12T11:44:03.973Z,4.80
2019-05-12T11:46:39.901Z,5.72
2019-05-12T11:49:15.834Z,4.80
2019-05-12T11:51:54.050Z,4.87
2019-05-12T11:54:30.403Z,4.17
2019-05-12T11:57:06.474Z,4.30
2019-05-12T11:59:44.677Z,5.33
2019-05-12T12:02:30.287Z,4.33
2019-05-12T12:05:06.850Z,4.85
2019-05-12T12:07:50.589Z,4.15
2019-05-12T12:10:20.363Z,4.12
2019-05-12T12:12:56.262Z,4.92
2019-05-12T12:15:34.233Z,4.70
2019-05-12T12:18:15.122Z,4.12
2019-05-12T12:20:48.262Z,4.40
2019-05-12T12:23:24.154Z,4.05
2019-05-12T12:26:00.049Z,4.33
2019-05-12T12:28:35.951Z,4.53
2019-05-12T12:31:13.180Z,4.78
2019-05-12T12:33:49.139Z,4.70
2019-05-12T12:36:25.235Z,5.15
2019-05-12T12:39:01.118Z,5.53
2019-05-12T12:41:45.746Z,4.95
2019-05-12T12:44:16.174Z,5.72
2019-05-12T12:46:59.817Z,5.92
2019-05-12T12:49:29.660Z,5.58
2019-05-12T12:52:05.581Z,8.65
2019-05-12T12:54:43.726Z,7.10
2019-05-12T12:57:19.331Z,5.80
2019-05-12T12:59:55.272Z,5.95
2019-05-12T13:02:33.732Z,6.45
2019-05-12T13:05:08.778Z,5.83
2019-05-12T13:07:45.694Z,7.83
2019-05-12T13:10:21.618Z,8.40
2019-05-12T13:13:01.021Z,7.03
2019-05-12T13:15:35.124Z,6.08
2019-05-12T13:18:18.072Z,6.20
2019-05-12T13:20:48.629Z,7.12
2019-05-12T13:23:36.769Z,5.62
2019-05-12T13:26:04.295Z,5.87
2019-05-12T13:28:39.731Z,4.90
2019-05-12T13:31:16.102Z,5.30
2019-05-12T13:33:54.780Z,6.22
2019-05-12T13:36:35.478Z,6.33
2019-05-12T13:39:11.326Z,6.37
2019-05-12T13:41:50.323Z,6.10
2019-05-12T13:44:24.299Z,5.67
2019-05-12T13:47:00.219Z,5.87
2019-05-12T13:49:42.733Z,6.65
2019-05-12T13:52:14.121Z,6.12
2019-05-12T13:54:51.058Z,6.65
2019-05-12T13:57:26.958Z,7.00
2019-05-12T14:00:09.314Z,5.47
2019-05-12T14:02:40.497Z,4.28
2019-05-12T14:05:16.808Z,4.58
2019-05-12T14:07:55.469Z,5.53
2019-05-12T14:10:30.338Z,4.78
2019-05-12T14:13:06.214Z,5.28
2019-05-12T14:15:44.377Z,6.85
2019-05-12T14:18:20.811Z,8.40
2019-05-12T14:21:00.375Z,6.78
2019-05-12T14:23:34.439Z,10.18
2019-05-12T14:26:10.356Z,8.45
2019-05-12T14:28:49.622Z,6.90
2019-05-12T14:31:30.029Z,5.72
2019-05-12T14:34:01.504Z,5.95
2019-05-12T14:36:37.416Z,6.22
2019-05-12T14:39:13.561Z,7.45
2019-05-12T14:41:53.186Z,7.12
2019-05-12T14:44:27.081Z,7.78
2019-05-12T14:47:03.824Z,7.35
2019-05-12T14:49:39.863Z,6.87
2019-05-12T14:52:15.787Z,8.10
2019-05-12T14:54:54.177Z,5.35
2019-05-12T14:57:37.442Z,4.10
2019-05-12T15:00:11.153Z,7.85
2019-05-12T15:02:46.667Z,5.58
2019-05-12T15:05:25.318Z,4.75
2019-05-12T15:08:00.511Z,4.78
2019-05-12T15:10:36.547Z,4.95
2019-05-12T15:13:13.954Z,4.60
2019-05-12T15:15:54.905Z,4.72
2019-05-12T15:18:27.719Z,4.50
2019-05-12T15:21:03.710Z,4.20
2019-05-12T15:23:39.842Z,3.95
2019-05-12T15:26:19.711Z,4.58
2019-05-12T15:28:54.288Z,4.58
2019-05-12T15:31:30.362Z,3.80
2019-05-12T15:34:06.424Z,4.70
2019-05-12T15:36:43.540Z,5.67
2019-05-12T15:39:20.077Z,4.45
2019-05-12T15:41:56.892Z,6.20
2019-05-12T15:44:36.305Z,4.62
2019-05-12T15:47:11.229Z,4.75
2019-05-12T15:49:47.129Z,5.25
2019-05-12T15:52:24.681Z,4.85
2019-05-12T15:55:00.732Z,4.12
2019-05-12T15:57:36.633Z,3.77
2019-05-12T16:00:16.916Z,4.20
2019-05-12T16:02:53.451Z,3.90
2019-05-12T16:05:31.192Z,3.92
2019-05-12T16:08:07.274Z,4.12
2019-05-12T16:10:43.677Z,4.87
2019-05-12T16:13:19.547Z,4.55
2019-05-12T16:16:02.885Z,4.97
2019-05-12T16:18:34.473Z,4.00
2019-05-12T16:21:10.540Z,3.90
2019-05-12T16:23:47.413Z,4.30
2019-05-12T16:26:24.241Z,4.22
2019-05-12T16:29:05.302Z,6.87
2019-05-12T16:31:39.402Z,5.17
2019-05-12T16:34:15.470Z,5.25
2019-05-12T16:36:52.631Z,4.92
2019-05-12T16:39:30.440Z,5.40
2019-05-12T16:42:10.414Z,4.75
2019-05-12T16:44:44.467Z,3.98
2019-05-12T16:47:25.117Z,5.55
2019-05-12T16:49:57.952Z,3.45
2019-05-12T16:52:40.472Z,4.00
2019-05-12T16:55:12.303Z,3.55
2019-05-12T16:57:52.824Z,4.20
2019-05-12T17:00:25.879Z,4.25
2019-05-12T17:03:03.684Z,4.60
2019-05-12T17:05:39.543Z,3.80
2019-05-12T17:08:15.417Z,4.47
2019-05-12T17:11:00.942Z,3.47
2019-05-12T17:13:28.993Z,3.95
2019-05-12T17:16:04.859Z,3.80
2019-05-12T17:18:40.933Z,3.70
2019-05-12T17:21:17.312Z,5.40
2019-05-12T17:23:53.240Z,5.55
2019-05-12T17:26:29.515Z,7.92
2019-05-12T17:29:05.760Z,5.40
2019-05-12T17:31:41.663Z,11.18
2019-05-12T17:34:17.616Z,5.95
2019-05-12T17:36:58.545Z,6.42
2019-05-12T17:39:37.394Z,7.00
2019-05-12T17:42:14.809Z,9.45
2019-05-12T17:44:46.447Z,8.55
2019-05-12T17:47:25.787Z,11.28
2019-05-12T17:50:00.434Z,10.55
2019-05-12T17:52:37.875Z,8.35
2019-05-12T17:55:15.066Z,7.87
2019-05-12T17:57:56.335Z,8.63
2019-05-12T18:00:28.822Z,10.43
2019-05-12T18:03:17.509Z,10.20
2019-05-12T18:05:47.818Z,11.57
2019-05-12T18:08:24.168Z,9.73
2019-05-12T18:10:57.867Z,8.73
2019-05-12T18:13:34.514Z,7.55
2019-05-12T18:16:19.807Z,7.28
2019-05-12T18:18:49.055Z,6.83
2019-05-12T18:21:30.855Z,7.65
2019-05-12T18:24:08.770Z,7.12
2019-05-12T18:26:40.332Z,7.00
2019-05-12T18:29:16.246Z,7.72
2019-05-12T18:31:53.395Z,6.90
2019-05-12T18:34:29.824Z,7.25
2019-05-12T18:37:05.709Z,6.90
2019-05-12T18:39:43.629Z,7.42
2019-05-12T18:42:19.386Z,7.40
2019-05-12T18:44:55.337Z,6.78
2019-05-12T18:47:32.318Z,6.58
2019-05-12T18:50:09.100Z,7.05
2019-05-12T18:53:02.783Z,6.97
2019-05-12T18:55:40.580Z,5.30
2019-05-12T18:58:21.776Z,5.53
2019-05-12T19:00:59.535Z,5.97
2019-05-12T19:03:47.162Z,5.70
2019-05-12T19:06:16.929Z,5.70
2019-05-12T19:09:04.145Z,5.35
2019-05-12T19:11:41.936Z,5.90
2019-05-12T19:14:17.866Z,5.20
2019-05-12T19:16:53.885Z,6.28
2019-05-12T19:19:29.872Z,6.05
2019-05-12T19:22:09.535Z,5.50
2019-05-12T19:24:44.346Z,5.45
2019-05-12T19:27:21.325Z,5.75
2019-05-12T19:29:57.278Z,6.25
2019-05-12T19:32:34.032Z,5.22
2019-05-12T19:35:17.245Z,5.72
2019-05-12T19:37:48.844Z,5.37
2019-05-12T19:40:24.801Z,5.60
2019-05-12T19:43:03.396Z,5.50
2019-05-12T19:45:38.445Z,4.70
2019-05-12T19:48:24.006Z,5.12
2019-05-12T19:50:56.630Z,5.00
2019-05-12T19:53:29.756Z,4.97
2019-05-12T19:56:05.771Z,14.50
2019-05-12T19:58:43.842Z,6.87
2019-05-12T20:01:26.056Z,5.15
2019-05-12T20:03:58.342Z,5.08
2019-05-12T20:06:35.424Z,4.78
2019-05-12T20:09:14.268Z,4.62
2019-05-12T20:11:49.068Z,4.72
2019-05-12T20:14:25.033Z,4.85
2019-05-12T20:17:00.942Z,4.33
2019-05-12T20:19:37.856Z,4.60
2019-05-12T20:22:13.918Z,4.70
2019-05-12T20:24:49.871Z,4.10
2019-05-12T20:27:25.840Z,4.12
2019-05-12T20:30:08.882Z,4.12
2019-05-12T20:32:43.376Z,4.72
2019-05-12T20:35:18.819Z,4.10
2019-05-12T20:37:57.313Z,4.10
2019-05-12T20:40:37.701Z,4.58
2019-05-12T20:43:13.863Z,4.65
2019-05-12T20:45:47.870Z,4.80
2019-05-12T20:48:26.495Z,4.40
2019-05-12T20:51:03.515Z,4.97
2019-05-12T20:53:39.222Z,4.20
2019-05-12T20:56:20.094Z,4.80
2019-05-12T20:58:52.870Z,4.45
2019-05-12T21:01:30.213Z,4.47
2019-05-12T21:04:07.822Z,4.50
2019-05-12T21:06:44.028Z,4.75
2019-05-12T21:09:19.974Z,5.00
2019-05-12T21:11:55.929Z,4.90
2019-05-12T21:14:33.451Z,5.00
2019-05-12T21:17:14.548Z,4.92
2019-05-12T21:19:55.812Z,4.78
2019-05-12T21:22:24.989Z,4.85
2019-05-12T21:25:01.151Z,5.00
2019-05-12T21:27:37.095Z,5.40
2019-05-12T21:30:15.205Z,5.10
2019-05-12T21:32:56.373Z,5.17
2019-05-12T21:35:31.955Z,5.22
2019-05-12T21:38:06.564Z,5.30
2019-05-12T21:40:44.188Z,5.17
2019-05-12T21:43:20.218Z,5.10
2019-05-12T21:45:56.163Z,4.55
2019-05-12T21:48:33.994Z,5.70
2019-05-12T21:51:15.444Z,4.90
2019-05-12T21:53:50.504Z,4.78
2019-05-12T21:56:25.108Z,4.95
2019-05-12T21:59:01.073Z,4.90
2019-05-12T22:01:43.140Z,5.12
2019-05-12T22:04:14.723Z,5.17
2019-05-12T22:06:56.198Z,5.08
2019-05-12T22:09:46.906Z,5.97
2019-05-12T22:12:23.322Z,4.67
2019-05-12T22:14:58.523Z,4.60
2019-05-12T22:17:36.017Z,4.65
2019-05-12T22:20:17.962Z,4.25
2019-05-12T22:22:49.759Z,5.35
2019-05-12T22:25:25.725Z,5.10
2019-05-12T22:28:07.834Z,5.50
2019-05-12T22:30:39.371Z,5.75
2019-05-12T22:33:15.336Z,5.15
2019-05-12T22:36:04.726Z,5.28
2019-05-12T22:38:28.990Z,5.37
2019-05-12T22:41:07.396Z,5.62
2019-05-12T22:43:45.790Z,5.20
2019-05-12T22:46:23.304Z,5.37
2019-05-12T22:48:58.744Z,5.53
2019-05-12T22:51:34.700Z,4.90
2019-05-12T22:54:10.809Z,5.25
2019-05-12T22:56:49.475Z,5.15
2019-05-12T22:59:24.420Z,5.10
2019-05-12T23:02:01.507Z,5.08
2019-05-12T23:04:40.343Z,5.25
2019-05-12T23:07:19.055Z,5.28
2019-05-12T23:09:53.769Z,5.33
2019-05-12T23:12:29.930Z,4.87
2019-05-12T23:15:07.666Z,4.45
2019-05-12T23:17:45.327Z,5.47
2019-05-12T23:20:25.404Z,5.35
2019-05-12T23:22:59.285Z,5.10
2019-05-12T23:25:35.254Z,5.28
2019-05-12T23:28:11.197Z,5.25
2019-05-12T23:30:48.433Z,4.90
2019-05-12T23:33:31.952Z,5.12
2019-05-12T23:36:04.038Z,5.17
2019-05-12T23:38:40.154Z,5.47
2019-05-12T23:41:16.102Z,5.15
2019-05-12T23:43:53.743Z,5.83
2019-05-12T23:46:29.853Z,4.92
2019-05-12T23:49:05.812Z,5.45
2019-05-12T23:51:43.718Z,4.92
2019-05-12T23:54:19.478Z,5.45
2019-05-12T23:56:55.425Z,5.45
2019-05-12T23:59:33.460Z,5.45
